createdAt,value
2018-07-08T00:01:37.829Z,102279.09
2018-07-08T00:04:06.322Z,102282.30
2018-07-08T00:06:34.796Z,102282.34
2018-07-08T00:09:03.312Z,102280.77
2018-07-08T00:11:31.834Z,102282.58
2018-07-08T00:14:00.387Z,102280.73
2018-07-08T00:16:28.859Z,102283.69
2018-07-08T00:18:57.339Z,102287.52
2018-07-08T00:21:25.941Z,102282.93
2018-07-08T00:23:54.406Z,102284.52
2018-07-08T00:26:22.974Z,102278.44
2018-07-08T00:28:51.500Z,102280.70
2018-07-08T00:31:19.953Z,102276.33
2018-07-08T00:33:48.433Z,102277.61
2018-07-08T00:36:16.920Z,102270.55
2018-07-08T00:38:45.402Z,102270.05
2018-07-08T00:41:13.960Z,102280.16
2018-07-08T00:43:42.403Z,102274.22
2018-07-08T00:46:10.942Z,102284.83
2018-07-08T00:48:39.374Z,102281.25
2018-07-08T00:51:07.841Z,102287.66
2018-07-08T00:53:36.398Z,102292.92
2018-07-08T00:56:05.003Z,102301.77
2018-07-08T00:58:33.586Z,102303.84
2018-07-08T01:01:02.255Z,102307.92
2018-07-08T01:03:30.822Z,102302.67
2018-07-08T01:05:59.325Z,102311.37
2018-07-08T01:08:27.784Z,102317.77
2018-07-08T01:10:56.272Z,102319.38
2018-07-08T01:13:24.803Z,102319.61
2018-07-08T01:15:53.336Z,102315.92
2018-07-08T01:18:21.953Z,102320.89
2018-07-08T01:20:50.524Z,102320.94
2018-07-08T01:23:18.997Z,102326.23
2018-07-08T01:25:58.787Z,102329.27
2018-07-08T01:28:27.349Z,102330.20
2018-07-08T01:30:55.905Z,102327.61
2018-07-08T01:33:24.558Z,102323.71
2018-07-08T01:35:53.012Z,102326.21
2018-07-08T01:38:21.582Z,102322.39
2018-07-08T01:40:50.018Z,102321.02
2018-07-08T01:43:18.526Z,102323.88
2018-07-08T01:45:47.091Z,102324.20
2018-07-08T01:48:15.609Z,102326.58
2018-07-08T01:50:44.157Z,102326.95
2018-07-08T01:53:12.794Z,102329.67
2018-07-08T01:55:41.352Z,102331.11
2018-07-08T01:58:10.047Z,102340.62
2018-07-08T02:00:38.523Z,102339.78
2018-07-08T02:03:07.438Z,102342.42
2018-07-08T02:05:36.118Z,102342.42
2018-07-08T02:08:04.593Z,102351.31
2018-07-08T02:10:33.057Z,102349.41
2018-07-08T02:13:01.553Z,102354.06
2018-07-08T02:15:30.035Z,102356.86
2018-07-08T02:17:58.616Z,102357.31
2018-07-08T02:20:27.059Z,102356.30
2018-07-08T02:22:55.545Z,102358.52
2018-07-08T02:25:24.022Z,102353.83
2018-07-08T02:27:52.551Z,102359.23
2018-07-08T02:30:21.013Z,102356.30
2018-07-08T02:32:49.591Z,102362.04
2018-07-08T02:35:18.073Z,102366.84
2018-07-08T02:37:46.763Z,102372.50
2018-07-08T02:40:15.337Z,102368.53
2018-07-08T02:42:43.814Z,102370.81
2018-07-08T02:45:13.173Z,102368.40
2018-07-08T02:47:42.188Z,102370.79
2018-07-08T02:50:10.853Z,102371.38
2018-07-08T02:52:39.414Z,102370.11
2018-07-08T02:55:07.953Z,102367.78
2018-07-08T02:57:36.384Z,102364.23
2018-07-08T03:00:05.577Z,102367.78
2018-07-08T03:02:34.126Z,102366.34
2018-07-08T03:05:02.553Z,102360.47
2018-07-08T03:07:31.930Z,102368.70
2018-07-08T03:10:00.403Z,102365.53
2018-07-08T03:12:28.914Z,102361.87
2018-07-08T03:14:57.471Z,102361.45
2018-07-08T03:17:25.970Z,102360.97
2018-07-08T03:19:54.521Z,102361.92
2018-07-08T03:22:23.091Z,102368.06
2018-07-08T03:24:51.714Z,102360.86
2018-07-08T03:27:20.291Z,102364.82
2018-07-08T03:29:48.723Z,102370.32
2018-07-08T03:32:17.235Z,102360.52
2018-07-08T03:34:45.679Z,102372.23
2018-07-08T03:37:14.193Z,102377.45
2018-07-08T03:39:43.129Z,102382.98
2018-07-08T03:42:11.655Z,102372.59
2018-07-08T03:44:40.168Z,102377.64
2018-07-08T03:47:08.606Z,102379.92
2018-07-08T03:49:37.137Z,102379.74
2018-07-08T03:52:05.901Z,102383.52
2018-07-08T03:54:34.392Z,102381.84
2018-07-08T03:57:02.883Z,102383.77
2018-07-08T03:59:31.768Z,102385.45
2018-07-08T04:02:00.242Z,102384.42
2018-07-08T04:04:28.688Z,102383.22
2018-07-08T04:06:57.221Z,102382.44
2018-07-08T04:09:25.682Z,102386.81
2018-07-08T04:11:54.173Z,102382.44
2018-07-08T04:14:22.624Z,102388.68
2018-07-08T04:16:51.183Z,102388.98
2018-07-08T04:19:19.713Z,102392.89
2018-07-08T04:21:48.144Z,102392.05
2018-07-08T04:24:16.588Z,102392.08
2018-07-08T04:26:45.020Z,102388.46
2018-07-08T04:29:13.557Z,102397.00
2018-07-08T04:31:41.987Z,102396.84
2018-07-08T04:34:10.517Z,102388.66
2018-07-08T04:36:39.005Z,102390.05
2018-07-08T04:39:08.315Z,102397.41
2018-07-08T04:41:36.872Z,102397.67
2018-07-08T04:44:05.396Z,102405.92
2018-07-08T04:46:33.837Z,102402.02
2018-07-08T04:49:02.333Z,102406.64
2018-07-08T04:51:30.809Z,102412.53
2018-07-08T04:53:59.300Z,102415.34
2018-07-08T04:56:27.769Z,102416.09
2018-07-08T04:58:56.233Z,102421.88
2018-07-08T05:01:24.718Z,102422.58
2018-07-08T05:03:53.240Z,102422.09
2018-07-08T05:06:21.701Z,102424.66
2018-07-08T05:08:50.132Z,102425.36
2018-07-08T05:11:18.675Z,102427.20
2018-07-08T05:13:47.349Z,102428.96
2018-07-08T05:16:15.832Z,102434.36
2018-07-08T05:18:44.256Z,102433.55
2018-07-08T05:21:12.924Z,102429.75
2018-07-08T05:23:41.446Z,102429.97
2018-07-08T05:26:10.814Z,102431.09
2018-07-08T05:28:39.372Z,102433.23
2018-07-08T05:31:07.940Z,102438.45
2018-07-08T05:33:36.417Z,102430.39
2018-07-08T05:36:05.105Z,102426.13
2018-07-08T05:38:33.596Z,102430.44
2018-07-08T05:41:02.037Z,102433.77
2018-07-08T05:43:30.589Z,102426.97
2018-07-08T05:45:59.244Z,102425.89
2018-07-08T05:48:27.728Z,102425.33
2018-07-08T05:50:56.285Z,102417.60
2018-07-08T05:53:24.787Z,102416.98
2018-07-08T05:55:55.361Z,102418.62
2018-07-08T05:58:23.801Z,102416.70
2018-07-08T06:00:52.257Z,102407.00
2018-07-08T06:03:20.769Z,102404.59
2018-07-08T06:05:49.266Z,102410.06
2018-07-08T06:08:17.729Z,102400.98
2018-07-08T06:10:46.217Z,102403.00
2018-07-08T06:13:14.716Z,102408.03
2018-07-08T06:15:43.190Z,102406.52
2018-07-08T06:18:11.743Z,102403.64
2018-07-08T06:20:40.149Z,102408.73
2018-07-08T06:23:08.632Z,102408.77
2018-07-08T06:25:37.100Z,102416.84
2018-07-08T06:28:06.108Z,102411.27
2018-07-08T06:30:34.580Z,102416.78
2018-07-08T06:33:03.052Z,102419.87
2018-07-08T06:35:31.590Z,102411.03
2018-07-08T06:38:00.139Z,102420.88
2018-07-08T06:40:28.701Z,102413.33
2018-07-08T06:42:57.224Z,102420.67
2018-07-08T06:45:25.875Z,102415.63
2018-07-08T06:47:54.375Z,102413.47
2018-07-08T06:50:22.956Z,102413.62
2018-07-08T06:52:51.358Z,102409.84
2018-07-08T06:55:23.371Z,102415.19
2018-07-08T06:57:51.845Z,102411.11
2018-07-08T07:00:20.459Z,102413.37
2018-07-08T07:02:49.031Z,102417.22
2018-07-08T07:05:17.549Z,102419.63
2018-07-08T07:07:46.099Z,102432.08
2018-07-08T07:10:14.579Z,102428.66
2018-07-08T07:12:43.030Z,102422.63
2018-07-08T07:15:11.604Z,102425.10
2018-07-08T07:17:40.142Z,102426.48
2018-07-08T07:20:08.589Z,102418.08
2018-07-08T07:22:38.023Z,102419.16
2018-07-08T07:25:07.029Z,102415.22
2018-07-08T07:27:35.507Z,102411.62
2018-07-08T07:30:04.101Z,102417.42
2018-07-08T07:32:32.563Z,102414.47
2018-07-08T07:35:01.041Z,102415.92
2018-07-08T07:37:29.585Z,102418.33
2018-07-08T07:39:57.976Z,102407.66
2018-07-08T07:42:26.541Z,102416.66
2018-07-08T07:44:55.081Z,102423.48
2018-07-08T07:47:23.561Z,102425.06
2018-07-08T07:49:52.157Z,102418.78
2018-07-08T07:52:20.715Z,102414.26
2018-07-08T07:54:49.403Z,102416.55
2018-07-08T07:57:18.437Z,102410.84
2018-07-08T07:59:46.993Z,102413.45
2018-07-08T08:02:17.612Z,102418.89
2018-07-08T08:04:46.115Z,102418.48
2018-07-08T08:07:14.701Z,102420.33
2018-07-08T08:09:43.217Z,102418.74
2018-07-08T08:12:11.768Z,102420.20
2018-07-08T08:14:40.209Z,102418.81
2018-07-08T08:17:08.718Z,102424.55
2018-07-08T08:19:37.300Z,102421.56
2018-07-08T08:22:05.860Z,102423.98
2018-07-08T08:24:34.370Z,102423.98
2018-07-08T08:27:02.824Z,102422.99
2018-07-08T08:29:31.370Z,102426.34
2018-07-08T08:31:59.875Z,102417.53
2018-07-08T08:35:00.357Z,102423.84
2018-07-08T08:37:30.182Z,102416.36
2018-07-08T08:39:58.745Z,102422.66
2018-07-08T08:42:27.231Z,102417.80
2018-07-08T08:44:56.416Z,102419.14
2018-07-08T08:47:25.411Z,102421.94
2018-07-08T08:49:54.316Z,102427.28
2018-07-08T08:52:22.802Z,102418.90
2018-07-08T08:54:51.672Z,102418.98
2018-07-08T08:57:20.197Z,102418.14
2018-07-08T08:59:48.740Z,102417.34
2018-07-08T09:02:17.229Z,102423.20
2018-07-08T09:04:45.840Z,102412.55
2018-07-08T09:07:16.355Z,102420.60
2018-07-08T09:09:45.005Z,102420.70
2018-07-08T09:12:13.714Z,102411.00
2018-07-08T09:14:42.211Z,102416.89
2018-07-08T09:17:11.139Z,102412.46
2018-07-08T09:19:39.894Z,102412.09
2018-07-08T09:22:09.132Z,102404.08
2018-07-08T09:24:37.666Z,102400.57
2018-07-08T09:27:06.301Z,102401.84
2018-07-08T09:29:34.831Z,102401.48
2018-07-08T09:32:03.299Z,102404.66
2018-07-08T09:34:31.796Z,102405.56
2018-07-08T09:37:00.378Z,102403.34
2018-07-08T09:39:29.036Z,102410.08
2018-07-08T09:41:57.589Z,102414.14
2018-07-08T09:44:26.125Z,102407.00
2018-07-08T09:46:54.602Z,102411.94
2018-07-08T09:49:23.081Z,102404.34
2018-07-08T09:51:51.774Z,102408.88
2018-07-08T09:54:20.236Z,102403.55
2018-07-08T09:56:48.692Z,102397.30
2018-07-08T09:59:17.310Z,102397.29
2018-07-08T10:01:47.707Z,102395.04
2018-07-08T10:04:17.458Z,102401.28
2018-07-08T10:06:46.810Z,102395.45
2018-07-08T10:09:17.474Z,102387.85
2018-07-08T10:11:45.968Z,102391.88
2018-07-08T10:14:15.984Z,102389.20
2018-07-08T10:16:45.087Z,102387.43
2018-07-08T10:19:14.763Z,102388.31
2018-07-08T10:21:43.273Z,102380.59
2018-07-08T10:24:11.976Z,102384.52
2018-07-08T10:26:40.471Z,102379.49
2018-07-08T10:29:09.591Z,102381.19
2018-07-08T10:31:48.910Z,102373.52
2018-07-08T10:34:17.765Z,102385.13
2018-07-08T10:36:46.470Z,102374.25
2018-07-08T10:39:16.022Z,102378.81
2018-07-08T10:41:44.485Z,102372.66
2018-07-08T10:44:13.845Z,102374.05
2018-07-08T10:46:42.960Z,102376.20
2018-07-08T10:49:11.750Z,102374.74
2018-07-08T10:51:42.353Z,102371.88
2018-07-08T10:54:10.893Z,102369.30
2018-07-08T10:56:39.371Z,102369.06
2018-07-08T10:59:07.817Z,102362.53
2018-07-08T11:01:36.388Z,102361.00
2018-07-08T11:04:05.133Z,102361.51
2018-07-08T11:06:33.704Z,102371.24
2018-07-08T11:09:02.425Z,102362.13
2018-07-08T11:11:30.971Z,102359.53
2018-07-08T11:13:59.594Z,102357.31
2018-07-08T11:16:28.089Z,102365.07
2018-07-08T11:18:56.564Z,102349.15
2018-07-08T11:21:25.067Z,102350.34
2018-07-08T11:23:53.677Z,102354.01
2018-07-08T11:26:22.215Z,102347.31
2018-07-08T11:28:50.691Z,102348.55
2018-07-08T11:31:19.220Z,102344.71
2018-07-08T11:33:47.697Z,102342.19
2018-07-08T11:36:16.253Z,102344.34
2018-07-08T11:38:44.745Z,102333.69
2018-07-08T11:41:13.393Z,102329.34
2018-07-08T11:43:41.874Z,102341.38
2018-07-08T11:46:10.477Z,102334.91
2018-07-08T11:48:38.965Z,102336.51
2018-07-08T11:51:07.668Z,102324.77
2018-07-08T11:53:36.582Z,102328.14
2018-07-08T11:56:05.050Z,102328.81
2018-07-08T11:58:33.622Z,102325.89
2018-07-08T12:01:02.169Z,102323.58
2018-07-08T12:03:30.705Z,102328.33
2018-07-08T12:05:59.286Z,102323.78
2018-07-08T12:08:27.880Z,102319.52
2018-07-08T12:10:56.443Z,102321.03
2018-07-08T12:13:25.008Z,102310.18
2018-07-08T12:15:53.590Z,102310.77
2018-07-08T12:18:22.074Z,102317.18
2018-07-08T12:20:50.504Z,102310.56
2018-07-08T12:23:19.081Z,102308.50
2018-07-08T12:25:47.809Z,102318.50
2018-07-08T12:28:16.337Z,102311.05
2018-07-08T12:30:44.893Z,102298.91
2018-07-08T12:33:13.476Z,102298.52
2018-07-08T12:35:42.077Z,102295.98
2018-07-08T12:38:10.630Z,102295.61
2018-07-08T12:40:39.233Z,102288.80
2018-07-08T12:43:07.699Z,102294.27
2018-07-08T12:45:36.167Z,102290.80
2018-07-08T12:48:04.670Z,102287.77
2018-07-08T12:50:33.136Z,102277.53
2018-07-08T12:53:01.917Z,102280.59
2018-07-08T12:55:30.428Z,102272.04
2018-07-08T12:57:59.004Z,102277.27
2018-07-08T13:00:27.585Z,102271.17
2018-07-08T13:02:56.062Z,102275.09
2018-07-08T13:05:24.481Z,102285.48
2018-07-08T13:07:53.052Z,102282.42
2018-07-08T13:10:21.604Z,102272.09
2018-07-08T13:12:50.184Z,102276.94
2018-07-08T13:15:18.774Z,102285.19
2018-07-08T13:17:47.348Z,102281.43
2018-07-08T13:20:15.786Z,102275.96
2018-07-08T13:22:44.332Z,102273.02
2018-07-08T13:25:12.909Z,102272.57
2018-07-08T13:27:41.557Z,102275.56
2018-07-08T13:30:10.069Z,102277.51
2018-07-08T13:32:38.566Z,102257.38
2018-07-08T13:35:07.087Z,102266.72
2018-07-08T13:37:35.596Z,102264.30
2018-07-08T13:40:04.298Z,102261.08
2018-07-08T13:42:32.748Z,102257.66
2018-07-08T13:45:01.298Z,102255.77
2018-07-08T13:47:29.867Z,102259.45
2018-07-08T13:49:58.312Z,102250.83
2018-07-08T13:52:26.905Z,102256.08
2018-07-08T13:54:55.414Z,102261.51
2018-07-08T13:57:23.989Z,102262.46
2018-07-08T13:59:52.563Z,102256.47
2018-07-08T14:02:21.086Z,102257.44
2018-07-08T14:04:49.817Z,102256.91
2018-07-08T14:07:18.333Z,102264.55
2018-07-08T14:09:46.909Z,102251.27
2018-07-08T14:12:15.452Z,102248.81
2018-07-08T14:14:44.108Z,102241.94
2018-07-08T14:17:12.646Z,102242.70
2018-07-08T14:19:45.854Z,102240.73
2018-07-08T14:22:14.334Z,102236.64
2018-07-08T14:24:43.270Z,102235.47
2018-07-08T14:27:11.854Z,102223.43
2018-07-08T14:29:40.430Z,102229.56
2018-07-08T14:32:09.102Z,102225.24
2018-07-08T14:34:37.721Z,102228.80
2018-07-08T14:37:06.312Z,102231.77
2018-07-08T14:39:34.870Z,102222.48
2018-07-08T14:42:03.439Z,102218.07
2018-07-08T14:44:31.984Z,102215.43
2018-07-08T14:47:00.554Z,102212.19
2018-07-08T14:49:29.166Z,102210.98
2018-07-08T14:51:57.706Z,102208.03
2018-07-08T14:54:26.217Z,102208.80
2018-07-08T14:56:54.785Z,102208.80
2018-07-08T14:59:23.371Z,102205.38
2018-07-08T15:01:51.972Z,102212.76
2018-07-08T15:04:20.548Z,102208.44
2018-07-08T15:06:49.039Z,102204.48
2018-07-08T15:09:18.096Z,102206.52
2018-07-08T15:11:46.556Z,102193.89
2018-07-08T15:14:16.213Z,102199.95
2018-07-08T15:16:44.758Z,102203.16
2018-07-08T15:19:13.291Z,102199.68
2018-07-08T15:21:42.782Z,102198.89
2018-07-08T15:24:11.381Z,102192.42
2018-07-08T15:26:39.952Z,102202.28
2018-07-08T15:29:08.502Z,102196.48
2018-07-08T15:31:37.804Z,102191.26
2018-07-08T15:34:06.390Z,102190.33
2018-07-08T15:36:34.871Z,102193.25
2018-07-08T15:39:03.409Z,102195.34
2018-07-08T15:41:31.993Z,102193.00
2018-07-08T15:44:00.718Z,102193.98
2018-07-08T15:46:29.226Z,102193.20
2018-07-08T15:48:57.770Z,102188.72
2018-07-08T15:51:26.316Z,102184.19
2018-07-08T15:53:54.882Z,102183.09
2018-07-08T15:56:23.434Z,102179.39
2018-07-08T15:58:52.261Z,102173.19
2018-07-08T16:01:55.943Z,102180.52
2018-07-08T16:04:24.544Z,102168.59
2018-07-08T16:06:52.984Z,102173.19
2018-07-08T16:09:22.402Z,102171.05
2018-07-08T16:11:50.929Z,102170.04
2018-07-08T16:14:19.454Z,102170.09
2018-07-08T16:16:47.898Z,102169.56
2018-07-08T16:19:17.815Z,102168.23
2018-07-08T16:21:46.261Z,102174.84
2018-07-08T16:24:14.745Z,102169.88
2018-07-08T16:26:43.289Z,102170.81
2018-07-08T16:29:11.868Z,102175.57
2018-07-08T16:31:40.328Z,102167.34
2018-07-08T16:34:08.802Z,102170.05
2018-07-08T16:36:37.302Z,102171.59
2018-07-08T16:39:06.521Z,102168.78
2018-07-08T16:41:35.185Z,102169.88
2018-07-08T16:44:03.840Z,102162.95
2018-07-08T16:46:32.393Z,102172.28
2018-07-08T16:49:00.998Z,102162.28
2018-07-08T16:51:29.500Z,102168.75
2018-07-08T16:54:09.131Z,102171.12
2018-07-08T16:56:45.344Z,102178.91
2018-07-08T16:59:15.957Z,102179.77
2018-07-08T17:01:47.935Z,102178.09
2018-07-08T17:04:18.640Z,102172.16
2018-07-08T17:06:48.998Z,102185.11
2018-07-08T17:09:18.215Z,102182.31
2018-07-08T17:11:47.341Z,102180.62
2018-07-08T17:14:16.683Z,102179.86
2018-07-08T17:16:45.308Z,102180.11
2018-07-08T17:19:15.502Z,102174.52
2018-07-08T17:21:44.119Z,102175.73
2018-07-08T17:24:14.021Z,102181.73
2018-07-08T17:26:42.670Z,102175.94
2018-07-08T17:29:11.435Z,102171.03
2018-07-08T17:31:40.035Z,102177.62
2018-07-08T17:34:08.449Z,102174.65
2018-07-08T17:36:37.046Z,102169.63
2018-07-08T17:39:07.782Z,102172.80
2018-07-08T17:41:36.920Z,102172.76
2018-07-08T17:44:06.646Z,102173.80
2018-07-08T17:46:35.242Z,102173.55
2018-07-08T17:49:03.911Z,102174.90
2018-07-08T17:51:32.418Z,102174.47
2018-07-08T17:54:00.906Z,102171.31
2018-07-08T17:56:29.377Z,102167.72
2018-07-08T17:58:57.952Z,102170.20
2018-07-08T18:01:26.535Z,102178.41
2018-07-08T18:03:55.155Z,102173.94
2018-07-08T18:06:23.730Z,102177.83
2018-07-08T18:08:52.351Z,102178.19
2018-07-08T18:11:20.947Z,102180.76
2018-07-08T18:13:50.095Z,102181.05
2018-07-08T18:16:19.285Z,102179.47
2018-07-08T18:18:47.870Z,102180.98
2018-07-08T18:21:17.059Z,102181.70
2018-07-08T18:23:46.033Z,102184.52
2018-07-08T18:26:14.512Z,102191.37
2018-07-08T18:28:42.986Z,102187.89
2018-07-08T18:31:11.448Z,102187.16
2018-07-08T18:33:40.093Z,102181.05
2018-07-08T18:36:08.551Z,102184.34
2018-07-08T18:38:37.159Z,102182.21
2018-07-08T18:41:05.908Z,102185.86
2018-07-08T18:43:34.497Z,102191.35
2018-07-08T18:46:03.099Z,102191.88
2018-07-08T18:48:31.812Z,102188.83
2018-07-08T18:51:00.383Z,102196.08
2018-07-08T18:53:29.004Z,102189.43
2018-07-08T18:55:57.584Z,102195.76
2018-07-08T18:58:26.156Z,102192.67
2018-07-08T19:00:54.827Z,102197.66
2018-07-08T19:03:23.366Z,102199.97
2018-07-08T19:05:51.972Z,102203.59
2018-07-08T19:08:20.668Z,102199.16
2018-07-08T19:10:49.267Z,102196.95
2018-07-08T19:13:18.239Z,102199.69
2018-07-08T19:15:46.842Z,102201.08
2018-07-08T19:18:15.513Z,102203.37
2018-07-08T19:20:44.025Z,102202.52
2018-07-08T19:23:12.697Z,102210.64
2018-07-08T19:25:41.172Z,102203.98
2018-07-08T19:28:09.668Z,102211.16
2018-07-08T19:30:38.354Z,102203.11
2018-07-08T19:33:07.098Z,102209.39
2018-07-08T19:35:35.707Z,102208.98
2018-07-08T19:38:04.189Z,102217.06
2018-07-08T19:40:32.770Z,102213.08
2018-07-08T19:43:01.281Z,102212.65
2018-07-08T19:45:29.966Z,102216.25
2018-07-08T19:47:58.536Z,102216.71
2018-07-08T19:50:37.324Z,102221.64
2018-07-08T19:53:06.630Z,102224.30
2018-07-08T19:55:35.094Z,102226.07
2018-07-08T19:58:03.773Z,102230.55
2018-07-08T20:00:32.812Z,102234.57
2018-07-08T20:03:02.556Z,102232.34
2018-07-08T20:05:32.704Z,102239.94
2018-07-08T20:08:01.185Z,102242.62
2018-07-08T20:10:29.831Z,102238.59
2018-07-08T20:12:58.402Z,102239.94
2018-07-08T20:15:26.968Z,102238.14
2018-07-08T20:17:55.596Z,102246.17
2018-07-08T20:20:24.272Z,102255.09
2018-07-08T20:22:53.141Z,102252.39
2018-07-08T20:25:21.688Z,102251.45
2018-07-08T20:28:00.415Z,102261.25
2018-07-08T20:30:29.092Z,102263.91
2018-07-08T20:32:57.602Z,102263.87
2018-07-08T20:35:26.198Z,102264.30
2018-07-08T20:37:54.727Z,102264.73
2018-07-08T20:40:23.227Z,102262.88
2018-07-08T20:42:51.846Z,102260.61
2018-07-08T20:45:20.355Z,102261.02
2018-07-08T20:47:48.892Z,102266.78
2018-07-08T20:50:17.456Z,102272.98
2018-07-08T20:52:45.945Z,102275.64
2018-07-08T20:55:14.479Z,102279.58
2018-07-08T20:57:43.291Z,102273.74
2018-07-08T21:00:12.953Z,102277.27
2018-07-08T21:02:41.765Z,102272.31
2018-07-08T21:05:10.341Z,102269.16
2018-07-08T21:07:39.120Z,102273.53
2018-07-08T21:10:08.331Z,102271.69
2018-07-08T21:12:36.945Z,102270.31
2018-07-08T21:15:06.198Z,102271.60
2018-07-08T21:17:34.793Z,102277.36
2018-07-08T21:20:03.537Z,102275.55
2018-07-08T21:22:32.001Z,102279.95
2018-07-08T21:25:00.517Z,102281.66
2018-07-08T21:27:29.036Z,102285.62
2018-07-08T21:30:12.931Z,102286.80
2018-07-08T21:32:41.577Z,102284.42
2018-07-08T21:35:10.019Z,102290.59
2018-07-08T21:37:38.596Z,102282.97
2018-07-08T21:40:07.200Z,102285.61
2018-07-08T21:42:35.683Z,102281.97
2018-07-08T21:45:04.286Z,102284.16
2018-07-08T21:47:32.845Z,102281.45
2018-07-08T21:50:01.455Z,102282.25
2018-07-08T21:52:30.006Z,102283.47
2018-07-08T21:54:58.670Z,102287.84
2018-07-08T21:57:27.328Z,102288.22
2018-07-08T21:59:55.954Z,102297.39
2018-07-08T22:02:24.645Z,102297.24
2018-07-08T22:04:53.303Z,102299.38
2018-07-08T22:07:21.948Z,102307.36
2018-07-08T22:09:51.300Z,102302.42
2018-07-08T22:12:19.825Z,102302.77
2018-07-08T22:14:48.718Z,102312.49
2018-07-08T22:17:17.349Z,102308.45
2018-07-08T22:19:45.865Z,102300.38
2018-07-08T22:22:14.427Z,102303.44
2018-07-08T22:24:42.946Z,102302.08
2018-07-08T22:27:11.503Z,102305.59
2018-07-08T22:29:40.082Z,102305.92
2018-07-08T22:32:08.580Z,102296.11
2018-07-08T22:35:11.128Z,102301.83
2018-07-08T22:37:39.727Z,102300.33
2018-07-08T22:40:08.625Z,102297.66
2018-07-08T22:42:37.196Z,102297.61
2018-07-08T22:45:05.966Z,102299.77
2018-07-08T22:47:34.471Z,102299.73
2018-07-08T22:50:02.946Z,102293.46
2018-07-08T22:52:31.440Z,102299.63
2018-07-08T22:55:00.056Z,102297.33
2018-07-08T22:57:28.527Z,102298.14
2018-07-08T23:00:08.213Z,102296.77
2018-07-08T23:02:42.777Z,102302.47
2018-07-08T23:05:11.311Z,102303.72
2018-07-08T23:07:41.065Z,102295.17
2018-07-08T23:10:10.564Z,102291.10
2018-07-08T23:12:39.153Z,102295.06
2018-07-08T23:15:08.140Z,102294.11
2018-07-08T23:17:36.646Z,102290.50
2018-07-08T23:20:06.204Z,102288.70
2018-07-08T23:22:45.909Z,102293.02
2018-07-08T23:25:14.577Z,102296.08
2018-07-08T23:27:43.168Z,102294.70
2018-07-08T23:30:11.724Z,102295.05
2018-07-08T23:32:40.304Z,102295.88
2018-07-08T23:35:08.792Z,102287.87
2018-07-08T23:37:37.268Z,102294.92
2018-07-08T23:40:05.758Z,102297.03
2018-07-08T23:42:34.232Z,102299.62
2018-07-08T23:45:02.735Z,102301.30
2018-07-08T23:47:31.207Z,102303.44
2018-07-08T23:49:59.738Z,102311.78
2018-07-08T23:52:28.436Z,102305.47
2018-07-08T23:55:00.745Z,102308.30
2018-07-08T23:57:29.182Z,102310.41
2018-07-08T23:59:57.706Z,102298.41
